Terminal Aerodrome Forecast
Issued by NWS Greer, SC

Home | Current Version | Previous Version | Text Only | Print | Product List | Glossary On
Versions: 1 2 3 4 5 6 7 8 9 10 11 12 13 14 15 16 17 18 19 20 21 22 23 24 25 26 27 28 29 30 31 32 33 34
000
FTUS42 KGSP 240520
TAFAVL
TAF
KAVL 240520Z 2406/2506 33016G22KT P6SM VCSH BKN030
     FM240900 33017G29KT P6SM BKN025 WS020/32045KT
     FM241100 33016G29KT P6SM SCT025 WS020/32045KT
     FM241400 33017G27KT P6SM SCT050
     FM241600 34017G26KT P6SM SCT250
     FM242000 34012KT P6SM FEW250
     FM250100 34007KT P6SM SKC=

USA.gov is the U.S. government's official web portal to all federal, state and local government web resources and services.